createdAt,value
2022-11-16T00:00:02.799Z,2.50
2022-11-16T00:02:32.206Z,2.40
2022-11-16T00:04:58.849Z,2.30
2022-11-16T00:07:26.772Z,2.13
2022-11-16T00:09:53.321Z,2.33
2022-11-16T00:12:19.809Z,2.38
2022-11-16T00:14:46.472Z,2.40
2022-11-16T00:17:12.906Z,2.50
2022-11-16T00:19:39.527Z,2.58
2022-11-16T00:22:05.999Z,2.38
2022-11-16T00:24:34.178Z,2.70
2022-11-16T00:27:00.919Z,2.63
2022-11-16T00:29:27.701Z,2.60
2022-11-16T00:31:54.886Z,3.00
2022-11-16T00:34:22.080Z,2.67
2022-11-16T00:36:48.934Z,2.90
2022-11-16T00:39:16.819Z,2.60
2022-11-16T00:41:45.304Z,2.60
2022-11-16T00:44:12.045Z,2.80
2022-11-16T00:46:38.662Z,2.63
2022-11-16T00:49:06.050Z,2.72
2022-11-16T00:51:32.788Z,2.90
2022-11-16T00:53:59.287Z,2.80
2022-11-16T00:56:25.782Z,2.60
2022-11-16T00:58:53.652Z,2.70
2022-11-16T01:01:20.294Z,2.80
2022-11-16T01:03:46.812Z,2.73
2022-11-16T01:06:15.122Z,2.70
2022-11-16T01:08:43.120Z,2.85
2022-11-16T01:11:12.511Z,2.45
2022-11-16T01:13:38.971Z,2.70
2022-11-16T01:16:07.271Z,2.77
2022-11-16T01:18:34.153Z,2.90
2022-11-16T01:21:00.818Z,2.50
2022-11-16T01:23:27.325Z,2.63
2022-11-16T01:25:56.335Z,2.88
2022-11-16T01:28:22.844Z,3.07
2022-11-16T01:30:49.622Z,2.70
2022-11-16T01:33:17.425Z,2.95
2022-11-16T01:35:43.917Z,2.92
2022-11-16T01:38:10.757Z,3.17
2022-11-16T01:40:37.918Z,2.60
2022-11-16T01:43:15.622Z,2.67
2022-11-16T01:45:42.406Z,3.00
2022-11-16T01:48:10.680Z,3.00
2022-11-16T01:50:38.938Z,3.00
2022-11-16T01:53:08.394Z,2.90
2022-11-16T01:55:37.187Z,2.90
2022-11-16T01:58:04.454Z,3.00
2022-11-16T02:00:30.950Z,2.85
2022-11-16T02:02:57.413Z,2.83
2022-11-16T02:05:33.998Z,2.83
2022-11-16T02:08:18.501Z,2.95
2022-11-16T02:11:02.756Z,2.40
2022-11-16T02:13:39.664Z,1.65
2022-11-16T02:16:17.055Z,2.20
2022-11-16T02:18:51.848Z,2.07
2022-11-16T02:21:35.798Z,2.08
2022-11-16T02:24:34.117Z,2.10
2022-11-16T02:27:40.185Z,2.10
2022-11-16T02:30:08.938Z,2.00
2022-11-16T02:32:41.145Z,1.93
2022-11-16T02:35:13.610Z,2.20
2022-11-16T02:37:45.350Z,2.40
2022-11-16T02:40:16.040Z,2.53
2022-11-16T02:42:45.479Z,2.65
2022-11-16T02:45:19.307Z,2.37
2022-11-16T02:47:48.410Z,2.40
2022-11-16T02:50:17.933Z,2.80
2022-11-16T02:52:44.547Z,2.85
2022-11-16T02:55:11.756Z,2.20
2022-11-16T02:57:44.286Z,2.50
2022-11-16T03:00:18.736Z,2.20
2022-11-16T03:02:54.103Z,2.13
2022-11-16T03:05:24.881Z,2.15
2022-11-16T03:07:59.417Z,2.30
2022-11-16T03:10:26.703Z,2.03
2022-11-16T03:12:53.492Z,2.00
2022-11-16T03:15:21.623Z,1.98
2022-11-16T03:17:50.255Z,2.13
2022-11-16T03:20:21.848Z,2.22
2022-11-16T03:22:52.279Z,1.87
2022-11-16T03:25:20.704Z,1.75
2022-11-16T03:27:52.973Z,2.20
2022-11-16T03:30:24.054Z,1.90
2022-11-16T03:32:58.714Z,1.77
2022-11-16T03:35:30.086Z,1.77
2022-11-16T03:37:59.708Z,1.80
2022-11-16T03:40:28.953Z,1.90
2022-11-16T03:42:56.508Z,1.58
2022-11-16T03:45:24.721Z,1.80
2022-11-16T03:47:51.334Z,1.57
2022-11-16T03:50:17.837Z,1.73
2022-11-16T03:52:44.328Z,1.83
2022-11-16T03:55:10.934Z,1.55
2022-11-16T03:57:37.397Z,1.75
2022-11-16T04:00:04.673Z,1.83
2022-11-16T04:02:32.531Z,1.60
2022-11-16T04:04:59.031Z,1.92
2022-11-16T04:07:25.632Z,2.00
2022-11-16T04:09:52.146Z,1.88
2022-11-16T04:12:18.632Z,2.20
2022-11-16T04:14:45.243Z,2.25
2022-11-16T04:17:13.082Z,2.10
2022-11-16T04:19:40.934Z,2.08
2022-11-16T04:22:14.284Z,2.15
2022-11-16T04:24:44.140Z,2.17
2022-11-16T04:27:15.541Z,2.20
2022-11-16T04:29:42.444Z,1.90
2022-11-16T04:32:10.095Z,1.85
2022-11-16T04:34:36.585Z,1.67
2022-11-16T04:37:04.397Z,1.80
2022-11-16T04:39:30.916Z,1.63
2022-11-16T04:41:57.522Z,1.83
2022-11-16T04:44:29.795Z,1.70
2022-11-16T04:46:56.714Z,2.10
2022-11-16T04:49:23.290Z,1.90
2022-11-16T04:51:49.781Z,1.60
2022-11-16T04:54:17.878Z,1.80
2022-11-16T04:56:44.445Z,1.73
2022-11-16T04:59:11.081Z,2.13
2022-11-16T05:01:37.579Z,2.00
2022-11-16T05:04:04.510Z,2.00
2022-11-16T05:06:31.043Z,2.13
2022-11-16T05:08:57.521Z,2.75
2022-11-16T05:11:25.400Z,2.35
2022-11-16T05:13:51.996Z,2.83
2022-11-16T05:16:18.535Z,2.70
2022-11-16T05:18:45.261Z,2.40
2022-11-16T05:21:11.730Z,2.33
2022-11-16T05:23:38.403Z,2.00
2022-11-16T05:26:05.064Z,2.00
2022-11-16T05:28:33.253Z,1.85
2022-11-16T05:31:01.274Z,1.83
2022-11-16T05:33:27.781Z,1.67
2022-11-16T05:35:54.380Z,2.03
2022-11-16T05:38:20.855Z,2.07
2022-11-16T05:40:47.633Z,2.10
2022-11-16T05:43:14.219Z,2.00
2022-11-16T05:45:42.572Z,2.20
2022-11-16T05:48:09.100Z,2.17
2022-11-16T05:50:41.362Z,2.17
2022-11-16T05:53:09.263Z,2.20
2022-11-16T05:55:35.952Z,2.28
2022-11-16T05:58:05.002Z,2.40
2022-11-16T06:00:31.535Z,2.33
2022-11-16T06:02:59.409Z,2.23
2022-11-16T06:05:26.020Z,2.35
2022-11-16T06:07:52.839Z,2.45
2022-11-16T06:10:19.381Z,2.30
2022-11-16T06:12:45.927Z,2.55
2022-11-16T06:15:12.476Z,2.63
2022-11-16T06:17:41.201Z,2.70
2022-11-16T06:20:11.113Z,2.08
2022-11-16T06:22:38.171Z,2.63
2022-11-16T06:25:05.727Z,2.30
2022-11-16T06:27:32.515Z,2.00
2022-11-16T06:29:59.043Z,1.65
2022-11-16T06:32:25.538Z,1.98
2022-11-16T06:34:52.033Z,1.80
2022-11-16T06:37:19.933Z,1.83
2022-11-16T06:39:46.444Z,1.80
2022-11-16T06:42:12.943Z,1.83
2022-11-16T06:44:39.534Z,2.13
2022-11-16T06:47:06.028Z,1.50
2022-11-16T06:49:32.487Z,1.60
2022-11-16T06:51:59.135Z,1.47
2022-11-16T06:54:26.962Z,1.40
2022-11-16T06:56:53.480Z,1.70
2022-11-16T06:59:20.326Z,1.30
2022-11-16T07:01:47.037Z,1.58
2022-11-16T07:04:13.636Z,1.43
2022-11-16T07:06:40.461Z,1.42
2022-11-16T07:09:07.614Z,1.50
2022-11-16T07:11:36.275Z,1.30
2022-11-16T07:14:03.060Z,1.30
2022-11-16T07:16:29.854Z,1.33
2022-11-16T07:18:56.806Z,1.20
2022-11-16T07:21:23.923Z,1.20
2022-11-16T07:23:50.490Z,1.40
2022-11-16T07:26:17.468Z,1.52
2022-11-16T07:28:48.456Z,1.00
2022-11-16T07:31:15.906Z,1.10
2022-11-16T07:33:42.579Z,1.40
2022-11-16T07:36:11.079Z,1.30
2022-11-16T07:38:37.866Z,1.20
2022-11-16T07:41:06.587Z,1.20
2022-11-16T07:43:34.202Z,1.25
2022-11-16T07:46:28.292Z,1.48
2022-11-16T07:48:51.833Z,1.38
2022-11-16T07:51:19.080Z,1.38
2022-11-16T07:53:46.275Z,1.40
2022-11-16T07:56:13.127Z,1.17
2022-11-16T07:58:39.850Z,1.40
2022-11-16T08:01:09.873Z,1.40
2022-11-16T08:03:39.305Z,1.30
2022-11-16T08:06:07.778Z,1.50
2022-11-16T08:08:34.805Z,1.27
2022-11-16T08:11:02.438Z,1.50
2022-11-16T08:13:29.490Z,1.25
2022-11-16T08:15:59.903Z,1.50
2022-11-16T08:18:27.830Z,1.50
2022-11-16T08:20:54.364Z,1.80
2022-11-16T08:23:21.000Z,1.42
2022-11-16T08:25:47.513Z,1.10
2022-11-16T08:28:13.999Z,1.58
2022-11-16T08:30:40.501Z,1.40
2022-11-16T08:33:07.558Z,1.20
2022-11-16T08:35:35.562Z,1.30
2022-11-16T08:38:02.188Z,1.33
2022-11-16T08:40:28.995Z,1.33
2022-11-16T08:42:55.527Z,1.27
2022-11-16T08:45:22.094Z,1.17
2022-11-16T08:47:48.676Z,1.27
2022-11-16T08:50:15.979Z,1.00
2022-11-16T08:52:44.035Z,2.83
2022-11-16T08:55:10.753Z,1.40
2022-11-16T08:57:46.235Z,1.20
2022-11-16T09:00:26.953Z,0.85
2022-11-16T09:02:53.973Z,1.15
2022-11-16T09:05:20.502Z,0.88
2022-11-16T09:07:48.366Z,1.10
2022-11-16T09:10:15.239Z,1.00
2022-11-16T09:12:41.760Z,0.93
2022-11-16T09:15:09.317Z,0.90
2022-11-16T09:17:35.836Z,1.00
2022-11-16T09:20:02.453Z,1.00
2022-11-16T09:22:28.945Z,0.93
2022-11-16T09:24:56.818Z,1.08
2022-11-16T09:27:23.411Z,1.15
2022-11-16T09:29:50.118Z,0.90
2022-11-16T09:32:16.641Z,1.00
2022-11-16T09:34:43.198Z,0.95
2022-11-16T09:37:09.699Z,1.05
2022-11-16T09:39:36.245Z,1.10
2022-11-16T09:42:25.485Z,1.25
2022-11-16T09:45:01.198Z,1.10
2022-11-16T09:47:40.136Z,1.05
2022-11-16T09:50:08.291Z,1.20
2022-11-16T09:52:44.138Z,1.10
2022-11-16T09:55:23.887Z,1.23
2022-11-16T09:57:54.324Z,1.57
2022-11-16T10:00:22.709Z,0.95
2022-11-16T10:02:59.989Z,0.90
2022-11-16T10:05:30.870Z,1.02
2022-11-16T10:08:18.183Z,0.85
2022-11-16T10:10:53.965Z,0.87
2022-11-16T10:13:36.706Z,0.70
2022-11-16T10:16:10.434Z,1.00
2022-11-16T10:18:46.994Z,0.98
2022-11-16T10:21:31.191Z,1.15
2022-11-16T10:24:16.055Z,1.03
2022-11-16T10:26:50.473Z,1.05
2022-11-16T10:29:31.669Z,0.98
2022-11-16T10:32:08.461Z,1.10
2022-11-16T10:34:45.503Z,1.13
2022-11-16T10:37:13.451Z,1.00
2022-11-16T10:39:40.973Z,0.93
2022-11-16T10:42:11.632Z,1.10
2022-11-16T10:44:44.042Z,0.90
2022-11-16T10:47:18.983Z,0.88
2022-11-16T10:49:53.503Z,0.93
2022-11-16T10:52:20.358Z,1.10
2022-11-16T10:54:46.891Z,1.70
2022-11-16T10:57:13.493Z,1.20
2022-11-16T10:59:43.383Z,1.10
2022-11-16T11:02:33.875Z,1.00
2022-11-16T11:05:04.549Z,1.02
2022-11-16T11:07:36.288Z,1.08
2022-11-16T11:10:03.856Z,1.13
2022-11-16T11:12:30.373Z,1.15
2022-11-16T11:15:05.131Z,0.90
2022-11-16T11:17:33.376Z,1.65
2022-11-16T11:20:01.979Z,0.80
2022-11-16T11:22:28.535Z,0.90
2022-11-16T11:24:55.152Z,1.00
2022-11-16T11:27:24.878Z,0.90
2022-11-16T11:29:53.535Z,1.17
2022-11-16T11:32:24.637Z,0.95
2022-11-16T11:34:53.695Z,1.02
2022-11-16T11:37:23.388Z,1.15
2022-11-16T11:40:05.537Z,0.83
2022-11-16T11:42:32.080Z,0.90
2022-11-16T11:45:02.059Z,1.05
2022-11-16T11:50:32.698Z,0.80
2022-11-16T11:53:05.365Z,0.87
2022-11-16T11:55:31.843Z,0.95
2022-11-16T11:58:00.212Z,0.98
2022-11-16T12:00:26.989Z,0.75
2022-11-16T12:03:21.746Z,0.93
2022-11-16T12:06:03.733Z,0.93
2022-11-16T12:08:47.245Z,1.25
2022-11-16T12:11:23.036Z,1.00
2022-11-16T12:14:00.328Z,1.08
2022-11-16T12:16:32.877Z,1.10
2022-11-16T12:22:28.559Z,0.75
2022-11-16T12:25:10.005Z,0.90
2022-11-16T12:27:46.966Z,0.80
2022-11-16T12:30:16.949Z,0.90
2022-11-16T12:33:01.754Z,0.70
2022-11-16T12:35:48.722Z,1.63
2022-11-16T12:38:37.851Z,0.90
2022-11-16T12:41:22.719Z,1.00
2022-11-16T12:43:59.325Z,1.00
2022-11-16T12:46:34.887Z,0.87
2022-11-16T12:49:31.380Z,1.23
2022-11-16T12:52:11.316Z,0.90
2022-11-16T12:55:25.358Z,0.77
2022-11-16T12:58:17.242Z,0.77
2022-11-16T13:00:55.992Z,0.90
2022-11-16T13:03:33.850Z,1.15
2022-11-16T13:06:05.790Z,0.70
2022-11-16T13:08:43.696Z,1.00
2022-11-16T13:11:17.702Z,1.00
2022-11-16T13:13:52.778Z,0.80
2022-11-16T13:16:21.663Z,0.90
2022-11-16T13:18:48.515Z,0.82
2022-11-16T13:21:35.982Z,0.77
2022-11-16T13:24:14.080Z,0.82
2022-11-16T13:26:49.139Z,0.87
2022-11-16T13:29:28.549Z,0.80
2022-11-16T13:32:01.897Z,0.80
2022-11-16T13:34:33.331Z,0.70
2022-11-16T13:37:02.783Z,0.80
2022-11-16T13:40:09.348Z,1.10
2022-11-16T13:42:44.455Z,1.05
2022-11-16T13:45:17.911Z,0.70
2022-11-16T13:47:49.975Z,1.02
2022-11-16T13:50:19.522Z,0.60
2022-11-16T13:53:46.237Z,0.70
2022-11-16T13:55:38.903Z,0.70
2022-11-16T13:58:11.115Z,0.70
2022-11-16T14:00:40.058Z,0.50
2022-11-16T14:03:29.087Z,0.90
2022-11-16T14:05:55.747Z,0.83
2022-11-16T14:08:50.562Z,0.60
2022-11-16T14:11:35.844Z,1.00
2022-11-16T14:14:05.959Z,0.70
2022-11-16T14:16:54.061Z,0.80
2022-11-16T14:19:53.454Z,0.90
2022-11-16T14:22:50.733Z,0.70
2022-11-16T14:25:30.334Z,1.00
2022-11-16T14:28:08.752Z,0.63
2022-11-16T14:30:50.915Z,0.85
2022-11-16T14:33:29.431Z,0.70
2022-11-16T14:35:56.271Z,0.80
2022-11-16T14:38:30.040Z,0.70
2022-11-16T14:40:59.976Z,0.70
2022-11-16T14:43:32.884Z,0.80
2022-11-16T14:46:06.147Z,1.00
2022-11-16T14:48:33.714Z,0.65
2022-11-16T14:51:06.906Z,0.70
2022-11-16T14:53:36.787Z,0.73
2022-11-16T14:56:10.077Z,0.90
2022-11-16T14:58:37.335Z,0.70
2022-11-16T15:01:13.897Z,0.90
2022-11-16T15:03:48.641Z,0.90
2022-11-16T15:06:16.353Z,0.80
2022-11-16T15:08:46.761Z,1.00
2022-11-16T15:11:22.344Z,1.00
2022-11-16T15:13:52.367Z,0.90
2022-11-16T15:16:20.798Z,1.17
2022-11-16T15:18:58.259Z,0.88
2022-11-16T15:21:26.288Z,0.85
2022-11-16T15:24:23.510Z,1.00
2022-11-16T15:26:40.629Z,1.13
2022-11-16T15:29:14.700Z,1.20
2022-11-16T15:31:46.025Z,0.90
2022-11-16T15:34:13.944Z,0.80
2022-11-16T15:36:42.684Z,0.97
2022-11-16T15:39:13.948Z,0.90
2022-11-16T15:41:43.446Z,0.80
2022-11-16T15:44:15.557Z,1.20
2022-11-16T15:46:47.171Z,1.00
2022-11-16T15:49:30.334Z,1.00
2022-11-16T15:51:58.250Z,0.80
2022-11-16T15:54:26.659Z,1.10
2022-11-16T15:56:55.455Z,1.20
2022-11-16T15:59:26.799Z,1.20
2022-11-16T16:01:55.650Z,1.13
2022-11-16T16:04:24.240Z,1.38
2022-11-16T16:06:52.656Z,1.15
2022-11-16T16:09:25.824Z,1.15
2022-11-16T16:11:54.202Z,0.90
2022-11-16T16:14:26.660Z,0.97
2022-11-16T16:16:56.723Z,0.80
2022-11-16T16:19:33.569Z,1.25
2022-11-16T16:22:00.418Z,1.35
2022-11-16T16:24:39.840Z,1.00
2022-11-16T16:27:15.545Z,1.40
2022-11-16T16:29:44.754Z,1.30
2022-11-16T16:32:23.641Z,1.48
2022-11-16T16:34:53.014Z,1.58
2022-11-16T16:37:25.588Z,1.42
2022-11-16T16:39:52.187Z,1.43
2022-11-16T16:42:19.004Z,1.05
2022-11-16T16:44:46.937Z,0.90
2022-11-16T16:47:13.957Z,1.08
2022-11-16T16:49:43.300Z,0.98
2022-11-16T16:52:12.046Z,0.97
2022-11-16T16:54:39.950Z,0.90
2022-11-16T16:57:07.136Z,1.20
2022-11-16T16:59:33.667Z,1.02
2022-11-16T17:02:00.544Z,1.00
2022-11-16T17:04:27.077Z,1.10
2022-11-16T17:06:55.422Z,0.90
2022-11-16T17:09:21.995Z,1.05
2022-11-16T17:11:49.284Z,1.00
2022-11-16T17:14:16.052Z,1.17
2022-11-16T17:16:45.052Z,1.13
2022-11-16T17:19:12.067Z,1.33
2022-11-16T17:21:38.664Z,1.17
2022-11-16T17:24:08.322Z,1.20
2022-11-16T17:26:35.640Z,1.40
2022-11-16T17:29:02.687Z,0.77
2022-11-16T17:31:29.383Z,1.38
2022-11-16T17:33:56.598Z,1.10
2022-11-16T17:36:23.766Z,1.30
2022-11-16T17:38:53.446Z,1.20
2022-11-16T17:41:21.736Z,1.20
2022-11-16T17:43:51.646Z,1.10
2022-11-16T17:46:20.719Z,1.10
2022-11-16T17:48:51.562Z,1.20
2022-11-16T17:51:23.373Z,1.20
2022-11-16T17:53:51.960Z,1.00
2022-11-16T17:56:22.186Z,1.10
2022-11-16T17:58:49.690Z,1.27
2022-11-16T18:01:16.537Z,1.48
2022-11-16T18:03:43.491Z,1.00
2022-11-16T18:06:14.911Z,1.13
2022-11-16T18:08:42.913Z,1.20
2022-11-16T18:11:15.168Z,1.17
2022-11-16T18:13:44.712Z,1.20
2022-11-16T18:16:13.059Z,1.25
2022-11-16T18:18:40.277Z,1.60
2022-11-16T18:21:08.213Z,1.88
2022-11-16T18:23:40.216Z,1.48
2022-11-16T18:26:11.109Z,1.63
2022-11-16T18:28:37.858Z,1.60
2022-11-16T18:31:10.754Z,1.30
2022-11-16T18:33:38.586Z,1.50
2022-11-16T18:36:06.464Z,1.45
2022-11-16T18:38:33.245Z,1.30
2022-11-16T18:41:07.025Z,1.20
2022-11-16T18:43:37.243Z,1.40
2022-11-16T18:46:06.368Z,0.95
2022-11-16T18:48:33.179Z,1.40
2022-11-16T18:51:00.911Z,1.23
2022-11-16T18:53:28.604Z,1.38
2022-11-16T18:55:58.212Z,1.33
2022-11-16T18:58:49.272Z,1.02
2022-11-16T19:01:17.960Z,1.60
2022-11-16T19:03:44.848Z,1.38
2022-11-16T19:06:12.330Z,1.20
2022-11-16T19:08:40.910Z,1.93
2022-11-16T19:11:09.919Z,1.50
2022-11-16T19:13:37.163Z,1.25
2022-11-16T19:16:04.425Z,1.40
2022-11-16T19:18:32.448Z,1.50
2022-11-16T19:21:03.835Z,1.60
2022-11-16T19:23:30.476Z,1.38
2022-11-16T19:26:00.583Z,1.25
2022-11-16T19:28:27.142Z,1.25
2022-11-16T19:30:53.748Z,1.52
2022-11-16T19:33:20.397Z,1.20
2022-11-16T19:35:48.341Z,1.05
2022-11-16T19:38:15.082Z,1.50
2022-11-16T19:40:41.779Z,1.20
2022-11-16T19:43:08.670Z,1.10
2022-11-16T19:45:35.584Z,1.30
2022-11-16T19:48:02.201Z,1.45
2022-11-16T19:50:29.590Z,1.52
2022-11-16T19:52:57.474Z,1.70
2022-11-16T19:55:24.530Z,1.60
2022-11-16T19:57:51.457Z,1.73
2022-11-16T20:00:18.592Z,1.50
2022-11-16T20:02:57.769Z,1.83
2022-11-16T20:05:31.450Z,1.50
2022-11-16T20:08:14.544Z,1.70
2022-11-16T20:10:41.365Z,1.90
2022-11-16T20:13:08.714Z,2.10
2022-11-16T20:18:24.615Z,1.58
2022-11-16T20:20:54.418Z,1.58
2022-11-16T22:33:51.961Z,1.10
2022-11-16T22:43:34.592Z,1.03
2022-11-16T22:46:37.292Z,1.08
2022-11-16T22:52:45.537Z,1.10
2022-11-16T22:55:38.805Z,0.90
2022-11-16T23:03:32.546Z,0.90
2022-11-16T23:05:43.692Z,1.23
2022-11-16T23:15:30.443Z,0.83
2022-11-16T23:21:28.524Z,0.98
2022-11-16T23:24:22.958Z,1.10
2022-11-16T23:26:53.461Z,1.23
2022-11-16T23:32:58.617Z,0.90
2022-11-16T23:35:32.114Z,1.40
2022-11-16T23:44:57.593Z,1.20
2022-11-16T23:47:26.768Z,1.10
2022-11-16T23:50:40.974Z,1.27
2022-11-16T23:53:14.885Z,0.93
2022-11-16T23:55:45.213Z,0.95
2022-11-16T23:58:15.942Z,1.10
